KMKG

Muskegon County Airport

Muskegon, Michigan, USA
KMKG 151124Z 1512/1612 00000KT 6SM BR OVC220 FM151400 22008KT P6SM SCT050 BKN100 OVC250 FM152200 VRB04KT P6SM OVC050 FM160800 15005KT 4SM BR VCSH OVC025
Issued Valid From Valid To
Aug-15 @ 11:24 UTC
(an hour ago)
Aug-15 @ 12:00 UTC
(41 minutes ago)
Aug-16 @ 12:00 UTC
(in 23 hours)
Aug-15 @ 12:00 to Aug-15 @ 14:00
KMKG 151124Z 1512/1612 00000KT 6SM BR OVC220
Visibility Clouds Conditions
6 miles
  • Overcast at 22,000' AGL
  • Mist
From Aug-15 @ 14:00 to Aug-15 @ 22:00
FM151400 22008KT P6SM SCT050 BKN100 OVC250
Wind Visibility Clouds
220° at 8 knots Greater than 6 miles
  • Scattered at 5,000' AGL
  • Broken at 10,000' AGL
  • Overcast at 25,000' AGL
From Aug-15 @ 22:00 to Aug-16 @ 08:00
FM152200 VRB04KT P6SM OVC050
Wind Visibility Clouds
Variable at 4 knots Greater than 6 miles
  • Overcast at 5,000' AGL
From Aug-16 @ 08:00 to Aug-16 @ 12:00
FM160800 15005KT 4SM BR VCSH OVC025
Wind Visibility Clouds Conditions
150° at 5 knots 4 miles
  • Overcast at 2,500' AGL
  • Mist
KMKG 151124Z 1512/1612 00000KT 6SM BR OVC220 FM151400 22008KT P6SM SCT050 BKN100 OVC250 FM152200 VRB04KT P6SM OVC050 FM160800 15005KT 4SM BR VCSH OVC025
Issued Aug-15 @ 11:24 UTC
(an hour ago)
Valid From Aug-15 @ 12:00 UTC
(41 minutes ago)
Valid To Aug-16 @ 12:00 UTC
(in 23 hours)
Aug-15 @ 12:00 - Aug-15 @ 14:00
Clouds
  • Overcast at 22,000' AGL
Conditions
  • Mist
From Aug-15 @ 14:00 - Aug-15 @ 22:00
Wind Visibility
220° at 8 knots Greater than 6 miles
Clouds
  • Scattered at 5,000' AGL
  • Broken at 10,000' AGL
  • Overcast at 25,000' AGL
From Aug-15 @ 22:00 - Aug-16 @ 08:00
Wind Visibility
Variable at 4 knots Greater than 6 miles
Clouds
  • Overcast at 5,000' AGL
From Aug-16 @ 08:00 - Aug-16 @ 12:00
Wind Visibility
150° at 5 knots 4 miles
Clouds
  • Overcast at 2,500' AGL
Conditions
  • Mist